Time;durP1;ratioP1;P1;durP2;ratioP2;P2;SDS_P1;SDS_P2;PMS_P1;PMS_P2;Temp;Humidity;BMP_temperature;BMP_pressure;BME280_temperature;BME280_humidity;BME280_pressure;Samples;Min_cycle;Max_cycle;Signal;HPM_P1;HPM_P2
2022/09/01 00:01:40;;;;;;;2.45;0.65;;;18.20;50.00;;;;;;5075349;28;20040;-48
2022/09/01 00:04:08;;;;;;;;;;;18.10;50.20;;;;;;5076015;28;20047;-47
2022/09/01 00:06:35;;;;;;;1.85;1.17;;;18.10;50.10;;;;;;5075449;28;19966;-48
2022/09/01 00:09:04;;;;;;;2.60;1.15;;;18.10;50.20;;;;;;5075465;28;20016;-47
2022/09/01 00:11:30;;;;;;;2.63;0.82;;;18.10;50.20;;;;;;5075525;28;20021;-46
2022/09/01 00:13:57;;;;;;;5.47;1.55;;;18.10;50.20;;;;;;5075114;28;20112;-52
2022/09/01 00:16:23;;;;;;;1.65;1.05;;;18.10;50.30;;;;;;5075339;28;20029;-47
2022/09/01 00:18:53;;;;;;;3.50;0.85;;;18.10;50.30;;;;;;5075060;28;20078;-47
2022/09/01 00:21:22;;;;;;;4.35;1.17;;;18.00;50.50;;;;;;5075397;28;20032;-47
2022/09/01 00:23:48;;;;;;;1.60;1.20;;;18.00;50.60;;;;;;5075131;28;20099;-47
2022/09/01 00:26:13;;;;;;;2.92;1.50;;;18.00;50.70;;;;;;5075363;28;20067;-48
2022/09/01 00:28:39;;;;;;;2.60;1.30;;;18.10;50.80;;;;;;5074835;28;20051;-46
2022/09/01 00:31:07;;;;;;;1.63;1.08;;;18.10;50.60;;;;;;5075002;28;20070;-48
2022/09/01 00:33:34;;;;;;;2.50;0.88;;;18.00;50.70;;;;;;5075537;28;20028;-49
2022/09/01 00:36:00;;;;;;;3.22;2.25;;;17.90;50.90;;;;;;5074856;28;20115;-47
2022/09/01 00:38:26;;;;;;;1.75;0.95;;;17.90;51.20;;;;;;5074852;28;20020;-47
2022/09/01 00:40:52;;;;;;;2.92;1.10;;;17.80;51.10;;;;;;5075160;28;20507;-46
2022/09/01 00:43:37;;;;;;;1.73;0.93;;;17.70;51.40;;;;;;5075141;28;20025;-48
2022/09/01 00:46:06;;;;;;;1.33;1.00;;;17.70;51.50;;;;;;5075041;28;20020;-48
2022/09/01 00:48:32;;;;;;;5.10;1.20;;;17.70;51.90;;;;;;5074923;28;20082;-48
2022/09/01 00:50:59;;;;;;;7.20;1.50;;;17.70;51.90;;;;;;5074725;28;20028;-48
2022/09/01 00:53:25;;;;;;;1.95;0.80;;;17.70;51.90;;;;;;5074400;28;20554;-47
2022/09/01 00:55:51;;;;;;;1.58;1.13;;;17.60;51.90;;;;;;5075000;28;20042;-50
2022/09/01 00:58:17;;;;;;;2.25;1.15;;;17.50;52.20;;;;;;5074652;28;20033;-47
2022/09/01 01:00:46;;;;;;;3.17;1.13;;;17.50;52.30;;;;;;5074358;28;20102;-47
2022/09/01 01:03:13;;;;;;;5.55;1.33;;;17.40;52.40;;;;;;5074484;28;20506;-45
2022/09/01 01:05:47;;;;;;;1.95;1.05;;;17.40;52.50;;;;;;5072767;28;20028;-47
2022/09/01 01:08:13;;;;;;;1.17;0.85;;;17.30;52.70;;;;;;5074229;28;20035;-47
2022/09/01 01:10:41;;;;;;;3.42;1.20;;;17.30;52.90;;;;;;5074542;28;20024;-46
2022/09/01 01:13:14;;;;;;;1.33;1.23;;;17.30;53.00;;;;;;5072625;28;20025;-49
2022/09/01 01:15:42;;;;;;;2.58;0.82;;;17.30;52.80;;;;;;5074282;28;20020;-47
2022/09/01 01:18:10;;;;;;;5.80;0.57;;;17.30;53.00;;;;;;5073971;28;20093;-47
2022/09/01 01:23:42;;;;;;;2.85;0.82;;;17.10;53.50;;;;;;5074148;28;20035;-48
2022/09/01 01:26:09;;;;;;;2.85;1.30;;;16.90;53.70;;;;;;5073862;28;20013;-47
2022/09/01 01:28:38;;;;;;;1.70;1.10;;;16.80;54.00;;;;;;5073591;28;20029;-46
2022/09/01 01:31:11;;;;;;;1.27;0.98;;;16.80;54.30;;;;;;5073743;28;20373;-47
2022/09/01 01:33:44;;;;;;;3.15;1.00;;;16.80;54.40;;;;;;5074037;28;20032;-48
2022/09/01 01:36:15;;;;;;;2.88;1.13;;;16.70;54.80;;;;;;5073990;28;20035;-47
2022/09/01 01:38:44;;;;;;;1.05;0.77;;;16.60;54.80;;;;;;5072310;28;20028;-46
2022/09/01 01:41:14;;;;;;;2.03;1.38;;;16.60;55.10;;;;;;5073109;28;20045;-46
2022/09/01 01:43:41;;;;;;;1.25;0.90;;;16.50;55.40;;;;;;5073959;28;20029;-46
2022/09/01 01:46:09;;;;;;;1.00;0.80;;;16.50;55.50;;;;;;5073512;28;20166;-46
2022/09/01 01:48:39;;;;;;;2.38;0.80;;;16.40;55.70;;;;;;5073146;28;20028;-47
2022/09/01 01:51:05;;;;;;;1.30;1.20;;;16.40;55.90;;;;;;5073531;28;20020;-47
2022/09/01 01:53:31;;;;;;;2.47;1.30;;;16.30;56.10;;;;;;5073378;28;20048;-46
2022/09/01 01:55:59;;;;;;;0.93;0.70;;;16.30;56.30;;;;;;5073328;28;20101;-47
2022/09/01 01:58:27;;;;;;;7.68;1.85;;;16.30;56.50;;;;;;5073660;28;20051;-47
2022/09/01 02:00:55;;;;;;;3.70;0.95;;;16.20;56.60;;;;;;5073356;28;20035;-46
2022/09/01 02:03:23;;;;;;;1.08;0.95;;;16.20;56.80;;;;;;5073105;28;20017;-48
2022/09/01 02:05:52;;;;;;;1.58;0.98;;;16.20;56.90;;;;;;5071884;28;20078;-47
2022/09/01 02:08:24;;;;;;;6.47;1.08;;;16.20;57.00;;;;;;5072242;28;20024;-46
2022/09/01 02:10:53;;;;;;;2.50;0.95;;;16.20;57.00;;;;;;5073772;28;20119;-46
2022/09/01 02:13:29;;;;;;;2.30;1.10;;;16.20;57.10;;;;;;5073264;28;20024;-46
2022/09/01 02:15:58;;;;;;;1.67;0.88;;;16.20;57.20;;;;;;5073323;28;20043;-46
2022/09/01 02:18:27;;;;;;;5.35;1.25;;;16.20;57.20;;;;;;5072931;28;20024;-47
2022/09/01 02:20:54;;;;;;;2.15;1.35;;;16.20;57.20;;;;;;5073031;28;20352;-47
2022/09/01 02:23:24;;;;;;;1.52;1.00;;;16.20;57.40;;;;;;5072960;28;20046;-48
2022/09/01 02:25:53;;;;;;;1.25;0.93;;;16.10;57.60;;;;;;5072667;28;20063;-47
2022/09/01 02:28:21;;;;;;;1.23;0.77;;;16.10;57.60;;;;;;5072735;28;20066;-48
2022/09/01 02:30:50;;;;;;;3.25;1.30;;;16.10;57.90;;;;;;5072483;28;20020;-47
2022/09/01 02:33:20;;;;;;;5.32;1.25;;;16.00;58.10;;;;;;5072844;28;20077;-47
2022/09/01 02:35:49;;;;;;;4.60;1.05;;;16.00;58.30;;;;;;5072643;28;20056;-47
2022/09/01 02:38:16;;;;;;;2.13;1.00;;;16.00;58.40;;;;;;5071015;28;20047;-47
2022/09/01 02:40:45;;;;;;;1.05;0.68;;;15.90;58.70;;;;;;5072604;28;20099;-47
2022/09/01 02:43:10;;;;;;;6.13;1.23;;;15.90;58.70;;;;;;5072383;28;20532;-47
2022/09/01 02:45:37;;;;;;;1.75;1.08;;;15.90;58.90;;;;;;5072194;28;20104;-47
2022/09/01 02:48:08;;;;;;;2.97;1.40;;;15.80;59.00;;;;;;5072538;28;20055;-49
2022/09/01 02:50:37;;;;;;;2.35;0.77;;;15.80;59.20;;;;;;5072462;28;20103;-47
2022/09/01 02:53:08;;;;;;;5.78;1.20;;;15.90;59.20;;;;;;5070951;28;20024;-48
2022/09/01 02:55:35;;;;;;;2.00;1.40;;;15.90;59.30;;;;;;5072606;28;20033;-48
2022/09/01 02:58:01;;;;;;;3.03;1.10;;;16.00;59.30;;;;;;5072687;28;20383;-48
2022/09/01 03:00:32;;;;;;;1.63;1.08;;;15.80;59.50;;;;;;5072334;28;20032;-47
2022/09/01 03:03:00;;;;;;;2.88;0.93;;;15.80;59.70;;;;;;5075988;28;20107;-47
2022/09/01 03:05:29;;;;;;;1.85;1.10;;;15.70;60.00;;;;;;5076511;28;20025;-47
2022/09/01 03:07:58;;;;;;;1.20;0.80;;;15.60;60.40;;;;;;5076193;28;20021;-47
2022/09/01 03:10:31;;;;;;;0.90;0.68;;;15.50;60.60;;;;;;5076278;28;20024;-49
2022/09/01 03:12:59;;;;;;;1.23;0.80;;;15.50;60.90;;;;;;5076634;28;20044;-48
2022/09/01 03:15:26;;;;;;;3.75;1.58;;;15.50;61.10;;;;;;5076318;28;20044;-47
2022/09/01 03:17:52;;;;;;;2.00;0.90;;;15.40;61.10;;;;;;5076384;28;20499;-50
2022/09/01 03:20:18;;;;;;;2.65;1.13;;;15.50;60.90;;;;;;5076866;28;20037;-47
2022/09/01 03:22:46;;;;;;;1.67;1.42;;;15.60;60.90;;;;;;5075958;28;20036;-47
2022/09/01 03:25:12;;;;;;;2.58;0.63;;;15.60;60.70;;;;;;5076531;28;20048;-47
2022/09/01 03:27:38;;;;;;;1.45;1.08;;;15.70;60.50;;;;;;5076209;28;20383;-46
2022/09/01 03:30:04;;;;;;;3.78;1.10;;;15.80;60.20;;;;;;5074785;28;20024;-50
2022/09/01 03:32:29;;;;;;;3.28;1.20;;;15.70;60.50;;;;;;5076138;28;20028;-46
2022/09/01 03:34:56;;;;;;;8.93;1.10;;;15.70;60.20;;;;;;5075888;28;20021;-47
2022/09/01 03:37:22;;;;;;;1.85;1.08;;;15.70;60.40;;;;;;5075847;28;20119;-47
2022/09/01 03:39:47;;;;;;;1.75;0.80;;;15.70;60.50;;;;;;5075724;28;20441;-48
2022/09/01 03:42:21;;;;;;;2.20;0.90;;;15.70;60.50;;;;;;5075747;28;20051;-47
2022/09/01 03:44:48;;;;;;;0.93;0.80;;;15.70;60.80;;;;;;5076122;28;20020;-48
2022/09/01 03:47:15;;;;;;;2.85;0.75;;;15.60;60.70;;;;;;5075465;28;20025;-48
2022/09/01 03:49:42;;;;;;;6.18;1.20;;;15.50;61.20;;;;;;5075636;28;20032;-47
2022/09/01 03:52:09;;;;;;;4.10;1.20;;;15.30;61.30;;;;;;5075634;28;20075;-47
2022/09/01 03:54:35;;;;;;;1.08;0.80;;;15.30;61.60;;;;;;5074207;28;20032;-47
2022/09/01 03:57:04;;;;;;;1.30;1.08;;;15.30;61.70;;;;;;5075820;28;20032;-46
2022/09/01 03:59:31;;;;;;;3.25;1.13;;;15.20;61.80;;;;;;5075369;28;20032;-47
2022/09/01 04:01:58;;;;;;;1.17;0.77;;;15.20;62.00;;;;;;5075385;28;20024;-49
2022/09/01 04:04:25;;;;;;;3.45;1.45;;;15.10;62.10;;;;;;5075246;28;20492;-46
2022/09/01 04:06:51;;;;;;;2.55;1.05;;;15.10;62.40;;;;;;5075204;28;20021;-47
2022/09/01 04:09:16;;;;;;;1.15;0.90;;;15.10;62.50;;;;;;5075140;28;20040;-46
2022/09/01 04:11:45;;;;;;;1.48;0.95;;;15.00;62.60;;;;;;5075209;28;20028;-47
2022/09/01 04:14:10;;;;;;;1.58;0.98;;;15.00;62.80;;;;;;5075018;28;20024;-46
2022/09/01 04:19:26;;;;;;;5.55;1.52;;;14.90;62.90;;;;;;5075134;28;20404;-46
2022/09/01 04:21:54;;;;;;;1.60;0.98;;;14.90;63.00;;;;;;5075444;28;20021;-47
2022/09/01 04:24:26;;;;;;;2.40;0.90;;;14.90;63.10;;;;;;5075131;28;20051;-48
2022/09/01 04:26:54;;;;;;;1.33;0.98;;;14.80;63.30;;;;;;5075349;28;20025;-51
2022/09/01 18:37:55;;;;;;;2.85;1.17;;;21.70;42.30;;;;;;5070607;28;20383;-39
2022/09/01 18:40:28;;;;;;;3.92;1.00;;;21.70;42.10;;;;;;5070153;28;20051;-38
2022/09/01 18:43:15;;;;;;;5.03;1.10;;;21.70;42.10;;;;;;5070180;28;20031;-48
2022/09/01 18:45:52;;;;;;;2.47;1.02;;;21.70;42.30;;;;;;5068714;28;20028;-47
2022/09/01 18:48:30;;;;;;;6.90;1.17;;;21.60;42.30;;;;;;5069852;28;20029;-47
2022/09/01 18:51:24;;;;;;;1.67;0.82;;;21.50;42.30;;;;;;5070898;28;20029;-47
2022/09/01 18:54:07;;;;;;;2.05;1.02;;;21.60;42.40;;;;;;5069746;28;20020;-51
2022/09/01 18:56:41;;;;;;;3.85;1.02;;;21.60;42.20;;;;;;5069635;28;20029;-48
2022/09/01 18:59:21;;;;;;;1.50;0.90;;;21.50;42.30;;;;;;5069893;28;20025;-51
2022/09/01 19:02:07;;;;;;;6.45;1.38;;;21.50;42.30;;;;;;5069586;28;20436;-47
2022/09/01 19:04:39;;;;;;;1.27;1.00;;;21.40;42.40;;;;;;5069851;28;20079;-50
2022/09/01 19:07:19;;;;;;;9.80;1.38;;;21.30;42.40;;;;;;5069887;28;20044;-47
2022/09/01 19:09:57;;;;;;;2.05;1.05;;;21.30;42.40;;;;;;5069347;28;20035;-46
2022/09/01 19:12:45;;;;;;;1.63;1.35;;;21.30;42.60;;;;;;5069361;28;20025;-47
2022/09/01 19:15:38;;;;;;;2.20;1.60;;;21.30;42.60;;;;;;5068105;28;20064;-47
2022/09/01 19:18:37;;;;;;;2.70;0.75;;;21.30;42.80;;;;;;5070103;28;20423;-47
2022/09/01 19:21:15;;;;;;;1.17;1.00;;;21.10;42.60;;;;;;5068827;28;20393;-47
2022/09/01 19:23:58;;;;;;;2.88;0.98;;;21.10;42.80;;;;;;5068502;28;20047;-48
2022/09/01 19:26:25;;;;;;;1.00;0.90;;;21.10;42.70;;;;;;5069074;28;20036;-47
2022/09/01 19:28:56;;;;;;;3.83;1.55;;;21.10;42.70;;;;;;5069036;28;20045;-47
2022/09/01 19:31:31;;;;;;;4.43;1.25;;;21.00;42.80;;;;;;5069004;28;20067;-48
2022/09/01 19:33:58;;;;;;;2.30;0.73;;;21.00;42.80;;;;;;5069123;28;20024;-47
2022/09/01 19:36:46;;;;;;;6.00;0.80;;;21.00;42.80;;;;;;5067678;28;20045;-47
2022/09/01 19:39:19;;;;;;;2.65;1.20;;;20.90;42.90;;;;;;5068058;28;20479;-47
2022/09/01 19:42:01;;;;;;;2.10;1.30;;;20.80;43.10;;;;;;5068519;28;20090;-47
2022/09/01 19:45:04;;;;;;;8.27;1.10;;;20.80;43.20;;;;;;5069903;28;20054;-46
2022/09/01 19:47:46;;;;;;;6.38;1.20;;;20.80;43.30;;;;;;5062839;28;20017;-47
2022/09/01 19:50:20;;;;;;;2.03;1.30;;;20.80;43.30;;;;;;5054325;28;20033;-46
2022/09/01 19:52:55;;;;;;;2.58;1.02;;;20.80;43.30;;;;;;5055502;28;20029;-46
2022/09/01 19:55:45;;;;;;;2.80;1.38;;;20.80;43.30;;;;;;5055900;28;20033;-46
2022/09/01 19:58:30;;;;;;;3.47;1.10;;;20.60;43.60;;;;;;5055495;28;20025;-47
2022/09/01 20:01:00;;;;;;;1.52;0.88;;;20.60;43.60;;;;;;5055949;28;20263;-46
2022/09/01 20:03:35;;;;;;;1.95;1.25;;;20.60;43.50;;;;;;5055445;28;20146;-48
2022/09/01 20:06:15;;;;;;;2.90;1.30;;;20.50;43.80;;;;;;5055663;28;20048;-49
2022/09/01 20:08:52;;;;;;;6.63;1.17;;;20.50;43.80;;;;;;5053840;28;20052;-46
2022/09/01 20:11:43;;;;;;;2.95;0.93;;;20.50;43.80;;;;;;5055718;28;20061;-48
2022/09/01 20:14:40;;;;;;;5.28;1.20;;;20.40;44.00;;;;;;5053925;28;20469;-47
2022/09/01 20:17:10;;;;;;;2.53;1.58;;;20.30;44.10;;;;;;5054187;28;20041;-47
2022/09/01 20:19:36;;;;;;;;;;;20.30;44.30;;;;;;5056147;28;20033;-46
2022/09/01 20:22:39;;;;;;;3.95;1.17;;;20.20;44.30;;;;;;5054121;28;20254;-46
2022/09/01 20:25:12;;;;;;;2.08;1.27;;;20.20;44.50;;;;;;5054356;28;20376;-46
2022/09/01 20:27:37;;;;;;;1.73;1.30;;;20.20;44.50;;;;;;5055362;28;20073;-47
2022/09/01 20:30:08;;;;;;;5.63;1.42;;;20.20;44.60;;;;;;5056112;28;20495;-47
2022/09/01 20:33:02;;;;;;;6.25;4.30;;;20.10;44.60;;;;;;5055241;28;20154;-47
2022/09/01 20:35:40;;;;;;;3.53;1.60;;;20.10;44.60;;;;;;5055162;28;20053;-47
2022/09/01 20:41:21;;;;;;;3.38;1.17;;;20.00;44.70;;;;;;5055387;28;20031;-47
2022/09/01 20:43:53;;;;;;;1.48;1.33;;;19.90;44.80;;;;;;5054894;28;20025;-50
2022/09/01 20:46:19;;;;;;;9.90;1.27;;;19.90;45.00;;;;;;5054780;28;20096;-48
2022/09/01 20:48:46;;;;;;;1.05;0.95;;;19.90;44.90;;;;;;5053506;28;20116;-52
2022/09/01 20:51:33;;;;;;;2.75;1.00;;;19.80;45.10;;;;;;5054880;28;20052;-51
2022/09/01 20:54:26;;;;;;;1.33;1.00;;;19.80;45.30;;;;;;5054432;28;20029;-48
2022/09/01 20:57:17;;;;;;;3.28;1.13;;;19.70;45.20;;;;;;5052829;28;20036;-48
2022/09/01 20:59:52;;;;;;;4.43;2.95;;;19.60;45.50;;;;;;5053544;28;20500;-48
2022/09/01 21:02:30;;;;;;;1.75;0.98;;;19.70;45.60;;;;;;5054149;28;20075;-48
2022/09/01 21:05:07;;;;;;;2.35;0.95;;;19.60;45.60;;;;;;5054268;28;20032;-48
2022/09/01 21:07:43;;;;;;;4.63;1.10;;;19.50;46.00;;;;;;5054659;28;20025;-48
2022/09/01 21:10:13;;;;;;;7.45;1.27;;;19.50;45.80;;;;;;5054442;28;20470;-47
2022/09/01 21:12:45;;;;;;;;;;;19.40;46.10;;;;;;5054575;28;20025;-47
2022/09/01 21:15:43;;;;;;;4.20;1.40;;;19.40;46.20;;;;;;5053991;28;19991;-46
2022/09/01 21:18:45;;;;;;;6.82;3.53;;;19.40;46.00;;;;;;5052098;28;20025;-48
2022/09/01 21:21:52;;;;;;;3.35;1.35;;;19.40;46.10;;;;;;5052538;28;20049;-46
2022/09/01 21:24:19;;;;;;;3.60;1.30;;;19.30;46.20;;;;;;5053588;28;20037;-46
2022/09/01 21:26:46;;;;;;;2.75;1.42;;;19.30;46.30;;;;;;5053699;28;20029;-46
2022/09/01 21:29:42;;;;;;;1.00;0.90;;;19.20;46.60;;;;;;5053521;28;20389;-46
2022/09/01 21:32:09;;;;;;;2.47;1.10;;;19.20;46.40;;;;;;5052903;28;20170;-48
2022/09/01 21:34:35;;;;;;;5.35;1.35;;;19.20;46.40;;;;;;5053337;28;20057;-46
2022/09/01 21:37:01;;;;;;;2.35;1.30;;;19.00;46.70;;;;;;5053134;28;20127;-48
2022/09/01 21:39:27;;;;;;;1.42;1.08;;;19.00;46.90;;;;;;5053146;28;20031;-45
2022/09/01 21:41:53;;;;;;;2.67;2.15;;;19.00;46.80;;;;;;5053375;28;20025;-46
2022/09/01 21:44:20;;;;;;;1.05;1.00;;;18.90;46.80;;;;;;5053351;28;20017;-47
2022/09/01 21:46:46;;;;;;;4.57;1.00;;;19.00;47.00;;;;;;5053396;28;20492;-48
2022/09/01 21:49:13;;;;;;;1.52;1.00;;;18.90;46.90;;;;;;5053147;28;20025;-48
2022/09/01 21:51:40;;;;;;;1.13;0.82;;;18.90;47.20;;;;;;5053511;28;20378;-47
2022/09/01 21:54:06;;;;;;;3.30;0.90;;;18.90;46.90;;;;;;5053149;28;20123;-47
2022/09/01 21:56:31;;;;;;;3.25;0.90;;;18.90;47.00;;;;;;5052989;28;20031;-46
2022/09/01 21:58:58;;;;;;;2.30;1.20;;;18.80;47.30;;;;;;5053123;28;20427;-49
2022/09/01 22:01:30;;;;;;;4.07;1.08;;;18.80;47.50;;;;;;5052698;28;20056;-46
2022/09/01 22:03:59;;;;;;;1.50;0.90;;;18.80;47.40;;;;;;5053030;28;20025;-46
2022/09/01 22:06:25;;;;;;;1.05;0.75;;;18.70;47.60;;;;;;5053494;28;20099;-47
2022/09/01 22:08:51;;;;;;;2.30;1.02;;;18.70;47.60;;;;;;5052877;28;20392;-46
2022/09/01 22:11:17;;;;;;;3.42;1.38;;;18.80;47.70;;;;;;5052665;28;20028;-46
2022/09/01 22:13:43;;;;;;;2.67;1.05;;;18.70;47.80;;;;;;5052890;28;20021;-47
2022/09/01 22:16:09;;;;;;;1.27;1.17;;;18.70;47.80;;;;;;5053267;28;20024;-47
2022/09/01 22:18:34;;;;;;;2.45;1.33;;;18.60;48.00;;;;;;5053213;28;20104;-46
2022/09/01 22:21:08;;;;;;;2.22;1.38;;;18.50;48.20;;;;;;5052107;28;20476;-48
2022/09/01 22:23:35;;;;;;;3.60;0.90;;;18.40;48.30;;;;;;5053264;28;20128;-46
2022/09/01 22:26:01;;;;;;;2.45;1.50;;;18.30;48.40;;;;;;5052972;28;20036;-46
2022/09/01 22:28:27;;;;;;;2.85;1.80;;;18.30;48.60;;;;;;5053076;28;20405;-46
2022/09/01 22:30:52;;;;;;;1.10;0.80;;;18.30;48.40;;;;;;5053138;28;20064;-47
2022/09/01 22:33:19;;;;;;;2.05;1.20;;;18.30;48.70;;;;;;5053327;28;20475;-46
2022/09/01 22:35:49;;;;;;;3.50;1.85;;;18.30;48.60;;;;;;5052806;28;20053;-47
2022/09/01 22:38:15;;;;;;;4.00;1.10;;;18.30;48.40;;;;;;5053415;28;20100;-47
2022/09/01 22:40:50;;;;;;;2.10;1.02;;;18.20;48.70;;;;;;5052009;28;20025;-45
2022/09/01 22:43:17;;;;;;;1.98;1.20;;;18.20;48.90;;;;;;5052932;28;20064;-47
2022/09/01 22:45:48;;;;;;;2.05;1.10;;;18.20;49.00;;;;;;5052901;28;20426;-46
2022/09/01 22:48:15;;;;;;;6.05;1.20;;;18.10;49.10;;;;;;5052484;28;20017;-50
2022/09/01 22:50:43;;;;;;;4.43;1.20;;;18.10;49.40;;;;;;5052835;28;20493;-46
2022/09/01 22:53:10;;;;;;;5.93;1.83;;;18.00;49.40;;;;;;5052518;28;20494;-47
2022/09/01 22:55:37;;;;;;;1.88;1.30;;;17.90;49.60;;;;;;5052773;28;20029;-46
2022/09/01 22:58:04;;;;;;;3.15;1.15;;;18.00;49.80;;;;;;5052177;28;20027;-46
2022/09/01 23:00:29;;;;;;;1.15;0.93;;;17.90;49.80;;;;;;5052686;28;20029;-47
2022/09/01 23:02:55;;;;;;;6.40;1.60;;;17.80;50.00;;;;;;5052146;28;20031;-47
2022/09/01 23:05:22;;;;;;;1.75;1.13;;;17.80;50.20;;;;;;5052113;28;20048;-46
2022/09/01 23:07:48;;;;;;;5.82;1.38;;;17.90;49.90;;;;;;5052224;28;20013;-46
2022/09/01 23:10:14;;;;;;;4.97;1.33;;;17.80;50.10;;;;;;5052175;28;20040;-47
2022/09/01 23:12:40;;;;;;;1.88;1.52;;;17.80;50.40;;;;;;5052381;28;20079;-48
2022/09/01 23:15:07;;;;;;;3.28;1.10;;;17.70;50.60;;;;;;5052082;28;20453;-46
2022/09/01 23:17:35;;;;;;;2.05;1.05;;;17.50;50.90;;;;;;5052192;28;20485;-46
2022/09/01 23:20:01;;;;;;;1.77;1.25;;;17.60;50.80;;;;;;5052149;28;20025;-48
2022/09/01 23:22:27;;;;;;;3.08;1.48;;;17.50;51.00;;;;;;5053095;28;20395;-46
2022/09/01 23:24:53;;;;;;;2.83;1.10;;;17.40;51.20;;;;;;5056184;28;20021;-46
2022/09/01 23:27:18;;;;;;;2.30;1.35;;;17.30;51.50;;;;;;5056180;28;20472;-48
2022/09/01 23:29:44;;;;;;;3.53;0.98;;;17.40;51.30;;;;;;5056017;28;20043;-46
2022/09/01 23:32:10;;;;;;;2.95;1.60;;;17.40;51.30;;;;;;5056055;28;20032;-49
2022/09/01 23:34:36;;;;;;;3.15;1.25;;;17.30;51.60;;;;;;5055619;28;20112;-46
2022/09/01 23:37:02;;;;;;;2.13;1.27;;;17.30;51.40;;;;;;5055441;28;20512;-46
2022/09/01 23:39:28;;;;;;;8.40;0.90;;;17.30;51.60;;;;;;5056030;28;20021;-46
2022/09/01 23:41:54;;;;;;;2.17;1.13;;;17.20;51.60;;;;;;5055748;28;20024;-47
2022/09/01 23:44:20;;;;;;;1.55;1.15;;;17.20;51.60;;;;;;5054355;28;20469;-45
2022/09/01 23:46:46;;;;;;;1.55;0.80;;;17.30;51.70;;;;;;5054883;28;20044;-48
2022/09/01 23:49:14;;;;;;;3.47;1.25;;;17.20;51.80;;;;;;5055826;28;20108;-48
2022/09/01 23:51:40;;;;;;;5.72;0.90;;;17.20;51.70;;;;;;5055508;28;20024;-46
2022/09/01 23:54:06;;;;;;;3.28;0.82;;;17.30;51.80;;;;;;5055628;28;20037;-46
2022/09/01 23:56:32;;;;;;;2.75;0.73;;;17.20;51.90;;;;;;5055594;28;20028;-47
2022/09/01 23:58:58;;;;;;;1.45;1.20;;;17.20;51.70;;;;;;5055236;28;20361;-46
